Stocks held by Nippon India Multi Cap Fund

#Stock NamePrevious Number of SharesPrevious DateCurrent Number of SharesPercentage ChangeLast Changed
1Devyani International Ltd4,518,8822024-06-239,371,735107.39%2024-06-24
2CIE Automotive India Ltd6,966,7842024-06-234,986,332-28.43%2024-06-24
3Abbott India Ltd133,0002024-06-2244,742-66.36%2024-06-24
4Zee Entertainment Enterprises Ltd2,586,0002024-06-2310,000,000286.70%2024-06-24
5VRL Logistics Ltd1,540,0002024-06-23921,558-40.16%2024-06-24
6Voltas Ltd4,376,9362024-06-233,238,909-26.00%2024-06-24
7Vesuvius India Ltd94,1772024-06-231,626,6021,627.18%2024-06-24
8Varroc Engineering Ltd3,038,6542024-06-203,038,6540.00%2024-06-24
9VST Tillers Tractors Ltd543,6912024-06-23176,392-67.56%2024-06-24
10UTI Asset Management Company Ltd2,267,2442024-06-232,148,776-5.23%2024-06-24
11Triveni Turbine Ltd5,238,2132024-06-234,651,414-11.20%2024-06-24
12Trent Ltd750,0002024-06-21800,0006.67%2024-06-24
13Indian Hotels Co Ltd8,682,3972024-06-2312,000,00038.21%2024-06-24
14Siemens Ltd700,0002024-06-21300,454-57.08%2024-06-24
15Shoppers Stop Ltd3,603,2592024-06-234,694,96530.30%2024-06-24
16Sheela Foam Ltd3,372,5372024-06-23942,367-72.06%2024-06-24
17Schneider Electric Infrastructure Ltd64,6602024-06-232,889,9864,369.51%2024-06-24
18SBI Cards & Payment Services Ltd5,317,7612024-06-213,500,657-34.17%2024-06-24
19Sanofi India Ltd196,3422024-06-23152,371-22.40%2024-06-24
20PVR Inox Ltd834,2142024-06-232,701,725223.86%2024-06-24
21Pfizer Ltd112,1092024-06-23362,848223.66%2024-06-24
22Narayana Hrudayalaya Ltd200,0002024-06-23927,845363.92%2024-06-24
23Max Financial Services Ltd3,592,2912024-06-235,150,00043.36%2024-06-24
24Mahindra Logistics Ltd635,1332024-06-233,839,999504.60%2024-06-24
25Kansai Nerolac Paints Ltd1,650,0002024-06-232,775,00068.18%2024-06-24
26J B Chemicals & Pharmaceuticals Ltd804,7042024-06-23985,90222.52%2024-06-24
27HDFC Asset Management Company Ltd1,704,5662024-06-221,700,747-0.22%2024-06-24
28Gland Pharma Ltd1,696,9332024-06-231,416,437-16.53%2024-06-24
29GE T&D India Ltd1,600,0002024-06-226,859,048328.69%2024-06-24
30GE Power India Ltd1,900,0002024-06-201,900,0000.00%2024-06-24
31Tata Power Company Ltd4,350,3752024-06-2316,300,000274.68%2024-06-24
32Finolex Cables Ltd3,014,2222024-06-231,008,142-66.55%2024-06-24
33Exide Industries Ltd22,419,2042024-06-235,000,000-77.70%2024-06-24
34Electronics Mart India Ltd2,102,2592024-06-225,902,561180.77%2024-06-24
35EIH Ltd7,342,6382024-06-2328,027,571281.71%2024-06-24
36Chalet Hotels Ltd5,468,7242024-06-23940,179-82.81%2024-06-24
37CESC Ltd34,000,0002024-06-235,000,000-85.29%2024-06-24
38Canara Bank2,951,1002024-06-234,500,00052.49%2024-06-24
39Bajaj Consumer Care Ltd72,2322024-06-232,712,1833,654.82%2024-06-24
40Astec Lifesciences Ltd5,3712024-06-23257,7184,698.32%2024-06-24
41Ashoka Buildcon Ltd3,266,9722024-06-235,244,76660.54%2024-06-24
42Amara Raja Energy & Mobility Ltd4,6952024-06-232,009,85442,708.39%2024-06-24
43Ajanta Pharma Ltd775,2592024-06-23628,966-18.87%2024-06-24
44Aditya Birla Fashion & Retail Ltd6,000,0002024-06-2313,094,685118.24%2024-06-24
45ABB India Ltd204,5402024-06-22275,00034.45%2024-06-24
46TCI Express Ltd130,4962024-06-23300,000129.89%2024-06-24
473M India Ltd30,3372024-06-2145,70450.65%2024-06-24
48Colgate-Palmolive (India) Ltd105,0002024-06-23500,473376.64%2024-06-24
49Gillette India Ltd100,4592024-06-21190,00089.13%2024-06-24

About the Author

Author Avatar
Getaka

Getaka, CFA, a financial analyst with 15 years of experience in the industry. Getaka holds an MBA degree and the Chartered Financial Analyst designation, demonstrating his profound understanding of financial analysis and investment management. Throughout his career, he has conducted numerous financial analyses and due diligence processes for companies in the industry, and has a strong track record of identifying key trends and opportunities. He leverages his expertise to deliver a thorough financial analysis of a company, encompassing its financial performance, key ratios, future prospects, and risks. Getaka is committed to providing accurate, reliable, and trustworthy information to help readers make informed decisions about their finances and investments.